Kapuskasing Airport
CYYU : now visible

Airfield :











YOU CAN JOIN US ON...

 
LOGIN :

Register | Disclaimer

   EN    FR    IT 

 









Legend :    VFR   Marginal VFR   IFR   Intensive IFR   Very Intensive IFR
Visi :
Ceiling :
>= 8 km
>= 3000ft
5 to 8 km
1000 to 3000 ft
1500m to 5 km
500 to 1000 ft
800 to 1500m
200 to 500 ft
< 800m
< 200 ft
Symbols :   Thunderstorms  Fog  Heavy snow  Heavy precipitations  Wind > 20 kt







- Airport Elevation : 743 ft
- IATA code : YYU


CYYU - Kapuskasing

CURRENT METAR :
  • 260500Z 18006KT 15SM SKC 14/10 A3010 RMK SLP198

EXPIRED METARs :
  • 260400Z 15003KT 15SM SKC 15/11 A3010 RMK SLP198
  • 260300Z 16003KT 15SM FEW250 16/11 A3010 RMK CS1 SLP198 DENSITY ALT 800FT

TAF TAF CYYU
Valid from the 26 at 02:00 until the 26 at 14:00 UTC


260145Z 2602/2614 VRB03KT P6SM FEW240
BECMG 2607/2609 18007KT
FM261300 18012KT P6SM SCT240 RMK NXT FCST BY 260800Z
No reported NOTAMs for that airfield.



MET'MAP, your aeronautical weather chart ! - Copyright ORBIFLY December 2007 - Disclaimer

ORBIFLY MET'MAP TEAM :

Programming & Development : Alexandra Zaïnal
Concept & Development : Baudouin d'Aumeries
Co-Development & Prog : Marc-Olivier Méhu
Technical & hardware support : Manuel Goepfert

Contact : metmap@orbifly.com




SOURCES & CREDITS :

   NOAA       Earth
Advisory